createdAt,value
2022-09-02T00:00:41.060Z,58.46
2022-09-02T00:01:41.096Z,56.68
2022-09-02T00:02:41.142Z,55.73
2022-09-02T00:03:41.038Z,59.54
2022-09-02T00:04:41.031Z,56.76
2022-09-02T00:05:41.029Z,50.88
2022-09-02T00:06:41.022Z,49.15
2022-09-02T00:07:41.030Z,45.03
2022-09-02T00:08:41.008Z,45.77
2022-09-02T00:09:40.998Z,45.23
2022-09-02T00:10:40.991Z,55.22
2022-09-02T00:11:40.983Z,51.90
2022-09-02T00:12:41.007Z,54.22
2022-09-02T00:13:40.958Z,52.16
2022-09-02T00:14:40.957Z,56.91
2022-09-02T00:15:40.944Z,46.05
2022-09-02T00:16:40.981Z,58.94
2022-09-02T00:17:42.019Z,59.12
2022-09-02T00:18:43.151Z,53.14
2022-09-02T00:19:41.911Z,42.36
2022-09-02T00:20:40.912Z,51.43
2022-09-02T00:21:40.901Z,60.44
2022-09-02T00:22:40.914Z,54.32
2022-09-02T00:23:40.887Z,51.86
2022-09-02T00:24:40.879Z,61.19
2022-09-02T00:25:40.867Z,54.22
2022-09-02T00:26:40.867Z,48.39
2022-09-02T00:27:40.846Z,55.35
2022-09-02T00:28:44.295Z,47.64
2022-09-02T00:29:41.838Z,58.12
2022-09-02T00:30:40.824Z,58.09
2022-09-02T00:31:40.866Z,46.64
2022-09-02T00:32:40.809Z,60.92
2022-09-02T00:33:40.827Z,49.18
2022-09-02T00:34:40.793Z,54.52
2022-09-02T00:35:40.783Z,51.52
2022-09-02T00:36:40.776Z,54.50
2022-09-02T00:37:40.771Z,51.75
2022-09-02T00:38:40.793Z,52.12
2022-09-02T00:39:40.758Z,51.02
2022-09-02T00:40:40.789Z,53.78
2022-09-02T00:41:40.733Z,56.66
2022-09-02T00:42:40.728Z,51.75
2022-09-02T00:43:40.751Z,57.92
2022-09-02T00:44:40.715Z,56.72
2022-09-02T00:45:40.763Z,52.10
2022-09-02T00:46:40.692Z,57.44
2022-09-02T00:47:40.714Z,57.46
2022-09-02T00:48:40.691Z,55.82
2022-09-02T00:49:40.673Z,57.07
2022-09-02T00:50:40.671Z,57.91
2022-09-02T00:51:40.660Z,57.23
2022-09-02T00:52:40.677Z,60.84
2022-09-02T00:53:40.635Z,58.09
2022-09-02T00:54:40.641Z,51.81
2022-09-02T00:55:41.629Z,58.24
2022-09-02T00:56:40.618Z,60.61
2022-09-02T00:57:40.633Z,54.85
2022-09-02T00:58:40.598Z,48.74
2022-09-02T00:59:40.593Z,45.49
2022-09-02T01:00:40.688Z,53.99
2022-09-02T01:01:40.675Z,60.63
2022-09-02T01:02:40.593Z,57.60
2022-09-02T01:03:40.566Z,56.93
2022-09-02T01:04:40.555Z,52.21
2022-09-02T01:05:43.732Z,60.27
2022-09-02T01:06:41.539Z,57.34
2022-09-02T01:07:40.566Z,55.83
2022-09-02T01:08:40.527Z,57.12
2022-09-02T01:09:40.514Z,54.25
2022-09-02T01:10:40.502Z,48.24
2022-09-02T01:11:40.502Z,48.73
2022-09-02T01:12:40.531Z,48.92
2022-09-02T01:13:40.485Z,51.58
2022-09-02T01:14:40.490Z,57.73
2022-09-02T01:15:40.470Z,53.81
2022-09-02T01:16:42.036Z,46.54
2022-09-02T01:17:40.477Z,54.34
2022-09-02T01:18:40.446Z,49.65
2022-09-02T01:19:40.442Z,46.94
2022-09-02T01:20:40.437Z,56.78
2022-09-02T01:21:40.422Z,57.20
2022-09-02T01:22:40.452Z,56.82
2022-09-02T01:23:40.408Z,54.45
2022-09-02T01:24:40.398Z,55.19
2022-09-02T01:25:40.393Z,57.60
2022-09-02T01:26:40.392Z,49.50
2022-09-02T01:27:40.409Z,55.98
2022-09-02T01:28:40.372Z,61.43
2022-09-02T01:29:40.369Z,60.78
2022-09-02T01:30:40.359Z,49.42
2022-09-02T01:31:40.402Z,54.27
2022-09-02T01:32:40.339Z,58.50
2022-09-02T01:33:40.590Z,65.91
2022-09-02T01:34:40.325Z,60.25
2022-09-02T01:35:40.320Z,54.98
2022-09-02T01:36:40.322Z,48.96
2022-09-02T01:37:40.303Z,44.91
2022-09-02T01:38:40.320Z,51.57
2022-09-02T01:39:40.279Z,55.60
2022-09-02T01:40:41.318Z,50.23
2022-09-02T01:41:40.269Z,57.32
2022-09-02T01:42:40.262Z,60.74
2022-09-02T01:43:40.277Z,61.20
2022-09-02T01:44:40.249Z,50.96
2022-09-02T01:45:40.243Z,56.95
2022-09-02T01:46:40.311Z,57.60
2022-09-02T01:47:40.225Z,57.88
2022-09-02T01:48:40.244Z,57.61
2022-09-02T01:49:40.210Z,46.65
2022-09-02T01:50:45.060Z,50.33
2022-09-02T01:51:42.194Z,59.15
2022-09-02T01:52:40.190Z,53.53
2022-09-02T01:53:40.203Z,47.87
2022-09-02T01:54:40.169Z,52.92
2022-09-02T01:55:40.172Z,51.18
2022-09-02T01:56:40.157Z,47.47
2022-09-02T01:57:40.145Z,50.31
2022-09-02T01:58:40.168Z,54.28
2022-09-02T01:59:40.130Z,48.31
2022-09-02T02:00:40.208Z,53.37
2022-09-02T02:01:40.230Z,56.11
2022-09-02T02:02:40.106Z,60.44
2022-09-02T02:03:40.130Z,49.42
2022-09-02T02:04:40.087Z,53.53
2022-09-02T02:05:40.091Z,55.74
2022-09-02T02:06:40.081Z,51.55
2022-09-02T02:07:40.069Z,46.02
2022-09-02T02:08:40.087Z,51.99
2022-09-02T02:09:40.057Z,46.36
2022-09-02T02:10:40.055Z,54.86
2022-09-02T02:11:40.043Z,62.98
2022-09-02T02:12:40.032Z,59.71
2022-09-02T02:13:40.048Z,50.65
2022-09-02T02:14:40.019Z,57.15
2022-09-02T02:15:40.007Z,53.26
2022-09-02T02:16:40.033Z,54.99
2022-09-02T02:17:40.065Z,58.99
2022-09-02T02:18:40.007Z,58.76
2022-09-02T02:19:39.981Z,60.72
2022-09-02T02:20:39.971Z,56.92
2022-09-02T02:21:39.962Z,61.51
2022-09-02T02:22:39.963Z,55.85
2022-09-02T02:23:39.978Z,54.13
2022-09-02T02:24:39.936Z,52.74
2022-09-02T02:25:39.930Z,50.58
2022-09-02T02:26:39.919Z,51.80
2022-09-02T02:27:39.910Z,53.21
2022-09-02T02:28:39.929Z,60.85
2022-09-02T02:29:39.901Z,58.42
2022-09-02T02:30:39.889Z,55.08
2022-09-02T02:31:39.933Z,54.77
2022-09-02T02:32:39.878Z,57.03
2022-09-02T02:33:39.897Z,58.85
2022-09-02T02:34:39.860Z,54.22
2022-09-02T02:35:39.862Z,60.00
2022-09-02T02:36:39.844Z,62.52
2022-09-02T02:37:39.840Z,60.94
2022-09-02T02:38:39.853Z,57.78
2022-09-02T02:39:39.819Z,58.11
2022-09-02T02:40:39.908Z,62.04
2022-09-02T02:41:39.803Z,63.77
2022-09-02T02:42:39.797Z,56.40
2022-09-02T02:43:39.820Z,60.25
2022-09-02T02:44:39.788Z,51.56
2022-09-02T02:45:39.787Z,57.80
2022-09-02T02:46:39.802Z,58.46
2022-09-02T02:47:39.764Z,62.30
2022-09-02T02:48:39.782Z,62.21
2022-09-02T02:49:39.744Z,55.41
2022-09-02T02:50:39.737Z,58.47
2022-09-02T02:51:39.735Z,60.63
2022-09-02T02:52:39.729Z,59.00
2022-09-02T02:53:39.720Z,54.81
2022-09-02T02:54:39.736Z,61.84
2022-09-02T02:55:39.696Z,66.82
2022-09-02T02:56:39.696Z,59.27
2022-09-02T02:57:39.664Z,63.91
2022-09-02T02:58:40.675Z,64.77
2022-09-02T02:59:39.697Z,61.26
2022-09-02T03:00:39.666Z,58.44
2022-09-02T03:01:39.758Z,56.58
2022-09-02T03:02:39.755Z,53.43
2022-09-02T03:03:39.644Z,60.24
2022-09-02T03:04:39.657Z,60.33
2022-09-02T03:05:39.620Z,63.17
2022-09-02T03:06:39.609Z,61.37
2022-09-02T03:07:39.618Z,52.67
2022-09-02T03:08:39.595Z,55.55
2022-09-02T03:09:39.619Z,61.91
2022-09-02T03:10:39.585Z,60.71
2022-09-02T03:11:39.583Z,58.76
2022-09-02T03:12:39.571Z,62.77
2022-09-02T03:13:39.562Z,59.17
2022-09-02T03:14:39.578Z,63.68
2022-09-02T03:15:39.594Z,64.89
2022-09-02T03:16:39.542Z,64.18
2022-09-02T03:17:39.524Z,67.85
2022-09-02T03:18:39.518Z,64.56
2022-09-02T03:19:39.541Z,66.14
2022-09-02T03:20:39.504Z,62.18
2022-09-02T03:21:39.502Z,63.71
2022-09-02T03:22:39.484Z,64.31
2022-09-02T03:23:39.479Z,62.24
2022-09-02T03:24:39.499Z,63.81
2022-09-02T03:25:39.459Z,65.02
2022-09-02T03:26:39.461Z,63.33
2022-09-02T03:27:39.450Z,65.89
2022-09-02T03:28:39.442Z,62.34
2022-09-02T03:29:39.450Z,59.75
2022-09-02T03:30:39.417Z,65.02
2022-09-02T03:31:39.450Z,62.26
2022-09-02T03:32:39.409Z,64.16
2022-09-02T03:33:39.394Z,63.94
2022-09-02T03:34:39.413Z,65.21
2022-09-02T03:35:39.379Z,56.13
2022-09-02T03:36:39.374Z,64.88
2022-09-02T03:37:39.362Z,67.98
2022-09-02T03:38:39.361Z,64.50
2022-09-02T03:39:39.368Z,65.34
2022-09-02T03:40:39.406Z,66.77
2022-09-02T03:41:39.333Z,66.77
2022-09-02T03:42:39.324Z,64.62
2022-09-02T03:43:39.318Z,63.83
2022-09-02T03:44:39.336Z,65.28
2022-09-02T03:45:39.351Z,64.77
2022-09-02T03:46:39.295Z,64.09
2022-09-02T03:47:39.280Z,64.55
2022-09-02T03:48:39.275Z,65.55
2022-09-02T03:49:39.296Z,63.66
2022-09-02T03:50:39.261Z,64.85
2022-09-02T03:51:39.252Z,62.24
2022-09-02T03:52:39.245Z,67.88
2022-09-02T03:53:39.251Z,59.70
2022-09-02T03:54:39.255Z,59.96
2022-09-02T03:55:39.224Z,66.23
2022-09-02T03:56:39.215Z,66.37
2022-09-02T03:57:39.209Z,62.57
2022-09-02T03:58:39.232Z,62.79
2022-09-02T03:59:39.215Z,61.39
2022-09-02T04:00:39.189Z,68.15
2022-09-02T04:01:39.210Z,64.56
2022-09-02T04:02:39.283Z,60.96
2022-09-02T04:03:39.164Z,63.58
2022-09-02T04:04:39.178Z,62.22
2022-09-02T04:05:39.146Z,67.47
2022-09-02T04:06:39.142Z,65.80
2022-09-02T04:07:39.129Z,59.35
2022-09-02T04:08:39.127Z,61.86
2022-09-02T04:09:42.378Z,65.87
2022-09-02T04:10:40.110Z,65.67
2022-09-02T04:11:39.098Z,64.07
2022-09-02T04:12:39.094Z,60.02
2022-09-02T04:13:39.090Z,65.61
2022-09-02T04:14:39.102Z,69.49
2022-09-02T04:15:39.082Z,64.33
2022-09-02T04:16:39.062Z,61.89
2022-09-02T04:17:39.052Z,64.58
2022-09-02T04:18:39.046Z,62.90
2022-09-02T04:19:39.065Z,62.43
2022-09-02T04:20:39.030Z,66.01
2022-09-02T04:21:39.021Z,67.42
2022-09-02T04:22:39.014Z,65.91
2022-09-02T04:23:39.004Z,63.23
2022-09-02T04:24:39.022Z,66.64
2022-09-02T04:25:38.987Z,62.74
2022-09-02T04:26:38.977Z,62.68
2022-09-02T04:27:39.971Z,60.77
2022-09-02T04:28:38.965Z,63.44
2022-09-02T04:29:38.982Z,67.19
2022-09-02T04:30:38.949Z,63.23
2022-09-02T04:31:38.979Z,61.92
2022-09-02T04:32:40.923Z,62.63
2022-09-02T04:33:39.931Z,64.34
2022-09-02T04:34:38.942Z,66.44
2022-09-02T04:35:38.907Z,64.75
2022-09-02T04:36:38.898Z,64.49
2022-09-02T04:37:38.888Z,69.37
2022-09-02T04:38:38.884Z,65.39
2022-09-02T04:39:38.904Z,64.01
2022-09-02T04:40:38.906Z,67.12
2022-09-02T04:41:38.860Z,65.02
2022-09-02T04:42:38.861Z,67.05
2022-09-02T04:43:38.847Z,67.13
2022-09-02T04:44:38.860Z,63.50
2022-09-02T04:45:38.831Z,67.15
2022-09-02T04:46:38.928Z,63.59
2022-09-02T04:47:38.819Z,63.43
2022-09-02T04:48:38.809Z,67.14
2022-09-02T04:49:38.824Z,66.06
2022-09-02T04:50:38.791Z,66.67
2022-09-02T04:51:38.779Z,64.19
2022-09-02T04:52:38.781Z,65.75
2022-09-02T04:53:38.769Z,65.82
2022-09-02T04:54:38.791Z,66.98
2022-09-02T04:55:38.755Z,64.35
2022-09-02T04:56:38.745Z,67.68
2022-09-02T04:57:38.738Z,62.74
2022-09-02T04:58:38.731Z,65.08
2022-09-02T04:59:38.727Z,63.84
2022-09-02T05:00:38.743Z,58.89
2022-09-02T05:01:38.834Z,64.85
2022-09-02T05:02:38.769Z,65.39
2022-09-02T05:03:38.690Z,67.52
2022-09-02T05:04:38.684Z,63.35
2022-09-02T05:05:38.702Z,64.95
2022-09-02T05:06:43.871Z,68.68
2022-09-02T05:07:40.662Z,64.89
2022-09-02T05:08:38.651Z,64.06
2022-09-02T05:09:38.644Z,63.27
2022-09-02T05:10:38.660Z,65.76
2022-09-02T05:11:38.626Z,66.40
2022-09-02T05:12:38.621Z,63.68
2022-09-02T05:13:38.612Z,61.59
2022-09-02T05:14:38.605Z,66.30
2022-09-02T05:15:38.677Z,67.66
2022-09-02T05:16:38.590Z,66.08
2022-09-02T05:17:38.586Z,62.64
2022-09-02T05:18:38.578Z,71.20
2022-09-02T05:19:38.570Z,67.16
2022-09-02T05:20:38.586Z,65.21
2022-09-02T05:21:38.544Z,63.56
2022-09-02T05:22:39.549Z,60.44
2022-09-02T05:23:38.538Z,64.72
2022-09-02T05:24:38.537Z,63.91
2022-09-02T05:25:38.549Z,65.47
2022-09-02T05:26:38.516Z,60.08
2022-09-02T05:27:38.512Z,64.08
2022-09-02T05:28:38.499Z,63.95
2022-09-02T05:29:38.498Z,64.70
2022-09-02T05:30:38.537Z,62.45
2022-09-02T05:31:38.482Z,62.06
2022-09-02T05:32:38.471Z,65.44
2022-09-02T05:33:38.466Z,65.33
2022-09-02T05:34:38.452Z,64.70
2022-09-02T05:35:38.474Z,64.97
2022-09-02T05:36:39.446Z,63.96
2022-09-02T05:37:38.440Z,67.65
2022-09-02T05:38:38.433Z,68.50
2022-09-02T05:39:38.426Z,64.87
2022-09-02T05:40:38.513Z,62.53
2022-09-02T05:41:38.410Z,66.01
2022-09-02T05:42:38.399Z,63.56
2022-09-02T05:43:38.391Z,59.97
2022-09-02T05:44:38.384Z,64.17
2022-09-02T05:45:38.416Z,68.42
2022-09-02T05:46:38.365Z,63.89
2022-09-02T05:47:38.362Z,65.30
2022-09-02T05:48:38.354Z,63.54
2022-09-02T05:49:38.348Z,62.36
2022-09-02T05:50:38.362Z,65.37
2022-09-02T05:51:38.329Z,61.07
2022-09-02T05:52:38.324Z,63.19
2022-09-02T05:53:38.314Z,64.01
2022-09-02T05:54:38.312Z,65.14
2022-09-02T05:55:38.322Z,65.49
2022-09-02T05:56:38.294Z,67.54
2022-09-02T05:57:38.285Z,62.27
2022-09-02T05:58:38.275Z,66.04
2022-09-02T05:59:38.269Z,62.96
2022-09-02T06:00:38.287Z,64.18
2022-09-02T06:01:38.310Z,63.76
2022-09-02T06:02:38.314Z,61.31
2022-09-02T06:03:38.240Z,59.93
2022-09-02T06:04:38.232Z,60.72
2022-09-02T06:05:38.247Z,65.10
2022-09-02T06:06:38.214Z,63.99
2022-09-02T06:07:38.210Z,67.01
2022-09-02T06:08:38.199Z,65.13
2022-09-02T06:09:38.196Z,64.69
2022-09-02T06:10:38.211Z,64.77
2022-09-02T06:11:38.181Z,63.28
2022-09-02T06:12:42.410Z,67.50
2022-09-02T06:13:39.163Z,65.24
2022-09-02T06:14:38.162Z,62.92
2022-09-02T06:15:38.222Z,59.38
2022-09-02T06:16:38.140Z,63.98
2022-09-02T06:17:38.132Z,62.12
2022-09-02T06:18:38.128Z,61.29
2022-09-02T06:19:38.118Z,62.49
2022-09-02T06:20:38.138Z,62.92
2022-09-02T06:21:38.099Z,63.20
2022-09-02T06:22:38.094Z,62.92
2022-09-02T06:23:38.087Z,62.19
2022-09-02T06:24:38.082Z,60.77
2022-09-02T06:25:38.096Z,63.68
2022-09-02T06:26:38.066Z,63.39
2022-09-02T06:27:38.054Z,60.55
2022-09-02T06:28:38.044Z,63.47
2022-09-02T06:29:38.040Z,61.31
2022-09-02T06:30:38.104Z,63.43
2022-09-02T06:31:38.024Z,63.33
2022-09-02T06:32:38.015Z,62.56
2022-09-02T06:33:38.038Z,60.12
2022-09-02T06:34:37.999Z,62.02
2022-09-02T06:35:38.016Z,65.20
2022-09-02T06:36:37.981Z,61.85
2022-09-02T06:37:37.975Z,61.44
2022-09-02T06:38:39.780Z,64.56
2022-09-02T06:39:37.956Z,63.30
2022-09-02T06:40:38.055Z,64.65
2022-09-02T06:41:37.937Z,60.59
2022-09-02T06:42:37.935Z,62.46
2022-09-02T06:43:42.486Z,59.71
2022-09-02T06:44:38.918Z,66.74
2022-09-02T06:45:37.936Z,65.74
2022-09-02T06:46:37.971Z,57.76
2022-09-02T06:47:37.899Z,65.79
2022-09-02T06:48:37.891Z,62.46
2022-09-02T06:49:37.879Z,64.15
2022-09-02T06:50:37.896Z,63.91
2022-09-02T06:51:37.866Z,61.38
2022-09-02T06:52:37.859Z,61.59
2022-09-02T06:53:37.850Z,64.43
2022-09-02T06:54:37.844Z,64.71
2022-09-02T06:55:37.860Z,63.25
2022-09-02T06:56:37.822Z,62.95
2022-09-02T06:57:37.815Z,63.32
2022-09-02T06:58:37.807Z,63.86
2022-09-02T06:59:37.803Z,63.20
2022-09-02T07:00:37.830Z,61.05
2022-09-02T07:01:37.864Z,61.26
2022-09-02T07:02:37.777Z,60.90
2022-09-02T07:03:37.769Z,62.85
2022-09-02T07:04:37.757Z,57.09
2022-09-02T07:05:37.752Z,60.42
2022-09-02T07:06:37.769Z,59.46
2022-09-02T07:07:37.737Z,60.83
2022-09-02T07:08:37.729Z,63.43
2022-09-02T07:09:37.723Z,64.03
2022-09-02T07:10:37.739Z,64.48
2022-09-02T07:11:37.706Z,63.54
2022-09-02T07:12:37.698Z,62.27
2022-09-02T07:13:37.694Z,60.94
2022-09-02T07:14:37.685Z,61.13
2022-09-02T07:15:37.701Z,59.03
2022-09-02T07:16:37.720Z,63.68
2022-09-02T07:17:37.658Z,63.85
2022-09-02T07:18:37.650Z,60.01
2022-09-02T07:19:37.646Z,63.45
2022-09-02T07:20:37.663Z,62.53
2022-09-02T07:21:37.629Z,64.14
2022-09-02T07:22:37.685Z,57.55
2022-09-02T07:23:40.575Z,61.09
2022-09-02T07:24:38.618Z,61.13
2022-09-02T07:25:37.632Z,64.40
2022-09-02T07:26:37.593Z,60.63
2022-09-02T07:27:37.588Z,53.48
2022-09-02T07:28:37.576Z,57.93
2022-09-02T07:29:37.568Z,61.25
2022-09-02T07:30:37.589Z,61.98
2022-09-02T07:31:37.576Z,62.49
2022-09-02T07:32:37.550Z,63.20
2022-09-02T07:33:37.537Z,64.85
2022-09-02T07:34:38.532Z,64.44
2022-09-02T07:35:37.526Z,61.74
2022-09-02T07:36:37.541Z,60.85
2022-09-02T07:37:37.508Z,62.28
2022-09-02T07:38:37.498Z,62.07
2022-09-02T07:39:37.491Z,61.04
2022-09-02T07:40:37.565Z,60.24
2022-09-02T07:41:37.501Z,64.67
2022-09-02T07:42:37.491Z,62.40
2022-09-02T07:43:37.491Z,63.97
2022-09-02T07:44:37.475Z,58.93
2022-09-02T07:45:37.540Z,62.73
2022-09-02T07:46:37.475Z,66.11
2022-09-02T07:47:37.739Z,65.39
2022-09-02T07:48:37.431Z,62.69
2022-09-02T07:50:39.413Z,58.05
2022-09-02T07:51:37.440Z,65.54
2022-09-02T07:52:37.393Z,60.85
2022-09-02T07:53:37.381Z,59.01
2022-09-02T07:54:37.377Z,65.40
2022-09-02T07:55:37.370Z,60.75
2022-09-02T07:56:37.388Z,60.54
2022-09-02T07:57:37.356Z,56.69
2022-09-02T07:58:37.345Z,60.11
2022-09-02T07:59:37.334Z,62.53
2022-09-02T08:00:37.330Z,62.33
2022-09-02T08:01:37.461Z,61.27
2022-09-02T08:02:37.333Z,60.56
2022-09-02T08:03:37.308Z,63.53
2022-09-02T08:04:37.294Z,59.56
2022-09-02T08:05:37.299Z,61.82
2022-09-02T08:06:37.304Z,60.58
2022-09-02T08:07:37.270Z,59.67
2022-09-02T08:08:37.262Z,62.96
2022-09-02T08:09:37.255Z,62.32
2022-09-02T08:10:37.249Z,60.35
2022-09-02T08:11:37.269Z,59.87
2022-09-02T08:12:37.234Z,63.08
2022-09-02T08:13:37.223Z,64.05
2022-09-02T08:14:37.218Z,62.99
2022-09-02T08:15:37.209Z,61.30
2022-09-02T08:16:37.262Z,60.22
2022-09-02T08:17:37.199Z,61.68
2022-09-02T08:18:37.187Z,63.75
2022-09-02T08:19:37.184Z,62.00
2022-09-02T08:20:37.229Z,60.14
2022-09-02T08:21:37.191Z,60.24
2022-09-02T08:22:37.168Z,61.21
2022-09-02T08:23:37.876Z,63.35
2022-09-02T08:24:38.143Z,58.13
2022-09-02T08:25:37.136Z,56.05
2022-09-02T08:26:37.164Z,60.49
2022-09-02T08:27:37.115Z,58.83
2022-09-02T08:28:37.111Z,61.03
2022-09-02T08:29:37.102Z,62.07
2022-09-02T08:30:37.092Z,61.46
2022-09-02T08:31:37.149Z,64.23
2022-09-02T08:32:37.080Z,64.24
2022-09-02T08:33:37.070Z,65.23
2022-09-02T08:34:37.065Z,59.33
2022-09-02T08:35:37.055Z,59.54
2022-09-02T08:36:37.075Z,63.13
2022-09-02T08:37:37.039Z,61.95
2022-09-02T08:38:37.047Z,65.50
2022-09-02T08:39:37.026Z,63.47
2022-09-02T08:40:37.054Z,63.13
2022-09-02T08:41:37.037Z,55.80
2022-09-02T08:42:37.016Z,55.48
2022-09-02T08:43:37.992Z,62.56
2022-09-02T08:44:36.990Z,61.10
2022-09-02T08:45:37.013Z,61.27
2022-09-02T08:46:36.997Z,60.61
2022-09-02T08:47:36.961Z,55.97
2022-09-02T08:48:36.958Z,59.52
2022-09-02T08:49:36.949Z,58.13
2022-09-02T08:50:36.942Z,61.53
2022-09-02T08:51:37.558Z,63.93
2022-09-02T08:52:36.931Z,62.69
2022-09-02T08:53:36.918Z,62.05
2022-09-02T08:54:36.913Z,55.03
2022-09-02T08:55:36.918Z,57.06
2022-09-02T08:56:36.920Z,64.84
2022-09-02T08:57:36.889Z,60.49
2022-09-02T08:58:37.881Z,58.49
2022-09-02T08:59:36.907Z,55.73
2022-09-02T09:00:36.869Z,61.59
2022-09-02T09:01:36.934Z,58.38
2022-09-02T09:02:36.923Z,62.55
2022-09-02T09:03:36.841Z,59.39
2022-09-02T09:04:36.839Z,56.95
2022-09-02T09:05:36.829Z,59.55
2022-09-02T09:06:36.853Z,61.43
2022-09-02T09:08:37.812Z,63.85
2022-09-02T09:09:36.800Z,60.52
2022-09-02T09:10:36.796Z,60.18
2022-09-02T09:11:36.815Z,61.13
2022-09-02T09:12:36.782Z,57.55
2022-09-02T09:13:41.212Z,59.24
2022-09-02T09:14:37.768Z,60.89
2022-09-02T09:15:36.757Z,59.69
2022-09-02T09:16:36.807Z,60.87
2022-09-02T09:17:36.769Z,59.71
2022-09-02T09:18:36.735Z,61.32
2022-09-02T09:19:36.729Z,59.34
2022-09-02T09:20:36.720Z,60.25
2022-09-02T09:21:36.717Z,61.19
2022-09-02T09:22:36.733Z,59.15
2022-09-02T09:23:36.704Z,56.68
2022-09-02T09:24:36.698Z,63.98
2022-09-02T09:25:36.682Z,61.00
2022-09-02T09:26:36.675Z,56.77
2022-09-02T09:27:36.694Z,55.45
2022-09-02T09:28:36.658Z,57.72
2022-09-02T09:29:36.653Z,62.99
2022-09-02T09:30:36.650Z,58.66
2022-09-02T09:31:36.677Z,55.46
2022-09-02T09:32:36.666Z,57.42
2022-09-02T09:33:36.626Z,58.74
2022-09-02T09:34:36.616Z,60.93
2022-09-02T09:35:36.608Z,58.11
2022-09-02T09:36:36.603Z,58.51
2022-09-02T09:37:36.671Z,61.17
2022-09-02T09:38:36.591Z,60.37
2022-09-02T09:39:36.596Z,59.87
2022-09-02T09:40:36.612Z,60.60
2022-09-02T09:41:36.566Z,62.10
2022-09-02T09:42:36.587Z,61.19
2022-09-02T09:43:36.553Z,58.32
2022-09-02T09:44:36.546Z,56.03
2022-09-02T09:45:36.550Z,59.95
2022-09-02T09:46:36.547Z,59.90
2022-09-02T09:47:36.547Z,60.56
2022-09-02T09:48:36.520Z,60.42
2022-09-02T09:49:36.515Z,62.56
2022-09-02T09:50:37.086Z,58.84
2022-09-02T09:51:49.848Z,59.24
2022-09-02T09:52:37.513Z,61.66
2022-09-02T09:53:36.481Z,61.44
2022-09-02T09:54:36.478Z,54.90
2022-09-02T09:55:39.759Z,61.24
2022-09-02T09:56:37.784Z,56.96
2022-09-02T09:57:37.497Z,59.74
2022-09-02T09:58:36.441Z,60.73
2022-09-02T09:59:37.438Z,60.06
2022-09-02T10:00:36.447Z,57.86
2022-09-02T10:01:36.423Z,59.74
2022-09-02T10:02:36.686Z,62.33
2022-09-02T10:03:37.412Z,57.42
2022-09-02T10:04:44.212Z,58.46
2022-09-02T10:05:38.400Z,61.77
2022-09-02T10:06:36.389Z,60.08
2022-09-02T10:07:36.405Z,59.70
2022-09-02T10:08:36.376Z,54.47
2022-09-02T10:09:36.376Z,65.37
2022-09-02T10:10:36.354Z,63.05
2022-09-02T10:11:36.350Z,62.15
2022-09-02T10:12:36.381Z,61.20
2022-09-02T10:13:36.332Z,63.16
2022-09-02T10:14:36.325Z,62.06
2022-09-02T10:15:36.314Z,61.89
2022-09-02T10:16:36.358Z,57.71
2022-09-02T10:17:36.371Z,60.48
2022-09-02T10:18:36.292Z,63.05
2022-09-02T10:19:36.281Z,63.98
2022-09-02T10:20:38.926Z,61.28
2022-09-02T10:21:38.396Z,65.52
2022-09-02T10:22:48.602Z,61.66
2022-09-02T10:23:37.250Z,61.59
2022-09-02T10:24:36.247Z,60.74
2022-09-02T10:25:36.239Z,62.82
2022-09-02T10:26:36.229Z,62.66
2022-09-02T10:27:36.248Z,60.11
2022-09-02T10:28:36.216Z,56.86
2022-09-02T10:29:36.211Z,61.48
2022-09-02T10:30:36.200Z,60.28
2022-09-02T10:31:36.228Z,49.75
2022-09-02T10:32:36.215Z,58.64
2022-09-02T10:33:36.187Z,59.82
2022-09-02T10:34:36.185Z,58.34
2022-09-02T10:35:36.172Z,62.39
2022-09-02T10:36:36.162Z,56.89
2022-09-02T10:37:36.181Z,56.72
2022-09-02T10:38:36.143Z,61.58
2022-09-02T10:39:36.135Z,61.98
2022-09-02T10:40:36.168Z,64.48
2022-09-02T10:41:36.203Z,55.12
2022-09-02T10:42:36.141Z,56.35
2022-09-02T10:43:36.105Z,64.06
2022-09-02T10:44:36.098Z,63.27
2022-09-02T10:45:36.089Z,63.09
2022-09-02T10:46:36.101Z,59.27
2022-09-02T10:47:36.093Z,62.40
2022-09-02T10:48:36.067Z,62.92
2022-09-02T10:49:36.060Z,61.31
2022-09-02T10:50:36.051Z,61.16
2022-09-02T10:51:36.045Z,56.60
2022-09-02T10:52:36.055Z,58.23
2022-09-02T10:53:36.023Z,59.37
2022-09-02T10:54:36.019Z,61.26
2022-09-02T10:55:36.015Z,60.62
2022-09-02T10:56:36.012Z,63.45
2022-09-02T10:57:36.023Z,65.85
2022-09-02T10:58:35.989Z,60.85
2022-09-02T10:59:35.981Z,63.12
2022-09-02T11:00:36.029Z,59.45
2022-09-02T11:01:36.630Z,60.93
2022-09-02T11:02:35.988Z,61.05
2022-09-02T11:03:36.026Z,58.66
2022-09-02T11:04:35.945Z,64.35
2022-09-02T11:05:35.939Z,59.26
2022-09-02T11:06:58.742Z,64.05
2022-09-02T11:07:37.944Z,60.53
2022-09-02T11:08:35.917Z,59.64
2022-09-02T11:09:35.910Z,60.60
2022-09-02T11:10:35.899Z,57.54
2022-09-02T11:11:35.891Z,60.09
2022-09-02T11:12:35.924Z,62.06
2022-09-02T11:13:35.874Z,59.50
2022-09-02T11:14:35.858Z,66.21
2022-09-02T11:15:36.861Z,64.95
2022-09-02T11:17:35.876Z,61.36
2022-09-02T11:18:35.843Z,60.31
2022-09-02T11:19:35.832Z,64.36
2022-09-02T11:20:35.828Z,61.66
2022-09-02T11:21:35.806Z,62.14
2022-09-02T11:22:36.830Z,62.83
2022-09-02T11:23:35.796Z,65.70
2022-09-02T11:24:35.786Z,63.28
2022-09-02T11:25:35.783Z,61.57
2022-09-02T11:26:35.782Z,62.83
2022-09-02T11:27:43.287Z,63.85
2022-09-02T11:28:37.755Z,62.10
2022-09-02T11:29:35.748Z,62.44
2022-09-02T11:30:35.741Z,61.54
2022-09-02T11:31:38.853Z,60.29
2022-09-02T11:32:36.756Z,62.79
2022-09-02T11:33:35.714Z,60.93
2022-09-02T11:34:35.939Z,64.46
2022-09-02T11:35:35.702Z,64.11
2022-09-02T11:36:35.694Z,59.80
2022-09-02T11:37:35.687Z,61.74
2022-09-02T11:38:35.704Z,60.15
2022-09-02T11:39:52.550Z,62.98
2022-09-02T11:40:38.910Z,57.71
2022-09-02T11:41:37.072Z,62.03
2022-09-02T11:42:36.674Z,60.33
2022-09-02T11:43:35.637Z,63.24
2022-09-02T11:44:35.628Z,63.09
2022-09-02T11:45:35.683Z,61.95
2022-09-02T11:46:35.657Z,62.99
2022-09-02T11:47:35.614Z,63.30
2022-09-02T11:48:35.626Z,62.55
2022-09-02T11:49:35.593Z,60.06
2022-09-02T11:50:38.724Z,64.85
2022-09-02T11:51:36.585Z,62.85
2022-09-02T11:52:35.574Z,63.25
2022-09-02T11:53:35.595Z,62.75
2022-09-02T11:54:35.558Z,63.44
2022-09-02T11:55:35.547Z,61.66
2022-09-02T11:56:35.545Z,60.22
2022-09-02T11:57:35.534Z,63.98
2022-09-02T11:58:35.554Z,61.11
2022-09-02T11:59:35.521Z,62.23
2022-09-02T12:00:35.531Z,63.47
2022-09-02T12:01:35.505Z,60.49
2022-09-02T12:02:35.504Z,61.10
2022-09-02T12:03:46.983Z,60.49
2022-09-02T12:04:59.470Z,61.00
2022-09-02T12:05:37.602Z,62.69
2022-09-02T12:06:35.590Z,60.47
2022-09-02T12:07:35.484Z,58.02
2022-09-02T12:08:35.479Z,59.80
2022-09-02T12:09:35.547Z,58.29
2022-09-02T12:10:35.440Z,61.90
2022-09-02T12:11:35.430Z,61.57
2022-09-02T12:12:35.423Z,62.32
2022-09-02T12:13:35.438Z,63.48
2022-09-02T12:14:35.408Z,63.29
2022-09-02T12:15:35.401Z,62.69
2022-09-02T12:16:35.467Z,63.20
2022-09-02T12:17:35.382Z,61.89
2022-09-02T12:18:35.390Z,62.67
2022-09-02T12:19:36.370Z,56.80
2022-09-02T12:20:35.358Z,59.21
2022-09-02T12:21:35.353Z,65.10
2022-09-02T12:22:35.342Z,65.45
2022-09-02T12:23:35.366Z,64.50
2022-09-02T12:24:35.328Z,60.26
2022-09-02T12:25:35.317Z,59.51
2022-09-02T12:26:35.313Z,60.70
2022-09-02T12:27:35.305Z,61.85
2022-09-02T12:28:35.322Z,64.21
2022-09-02T12:29:35.290Z,64.94
2022-09-02T12:30:35.283Z,60.81
2022-09-02T12:31:35.286Z,64.20
2022-09-02T12:32:35.265Z,61.93
2022-09-02T12:33:35.281Z,63.18
2022-09-02T12:34:35.254Z,62.27
2022-09-02T12:35:35.336Z,64.63
2022-09-02T12:36:35.235Z,64.83
2022-09-02T12:37:35.227Z,63.52
2022-09-02T12:38:35.246Z,62.33
2022-09-02T12:39:35.216Z,60.82
2022-09-02T12:40:35.276Z,60.62
2022-09-02T12:41:35.193Z,59.97
2022-09-02T12:42:35.188Z,59.27
2022-09-02T12:43:35.215Z,58.73
2022-09-02T12:44:35.266Z,57.45
2022-09-02T12:45:35.164Z,60.80
2022-09-02T12:46:35.172Z,56.82
2022-09-02T12:47:35.155Z,61.46
2022-09-02T12:48:38.451Z,60.66
2022-09-02T12:49:35.134Z,61.51
2022-09-02T12:50:35.125Z,60.83
2022-09-02T12:51:35.196Z,63.44
2022-09-02T12:52:35.118Z,64.83
2022-09-02T12:53:35.117Z,62.47
2022-09-02T12:54:35.276Z,61.78
2022-09-02T12:55:35.095Z,63.11